sensor_id;sensor_type;location;lat;lon;timestamp;P1;durP1;ratioP1;P2;durP2;ratioP2
17987;SDS011;9119;50.932;5.342;2023-05-10T00:00:00;21.17;;;11.03;;
17987;SDS011;9119;50.932;5.342;2023-05-10T00:02:26;18.23;;;11.00;;
17987;SDS011;9119;50.932;5.342;2023-05-10T00:04:52;17.47;;;9.97;;
17987;SDS011;9119;50.932;5.342;2023-05-10T00:07:17;20.53;;;10.57;;
17987;SDS011;9119;50.932;5.342;2023-05-10T00:09:43;20.93;;;9.87;;
17987;SDS011;9119;50.932;5.342;2023-05-10T00:12:09;20.70;;;10.37;;
17987;SDS011;9119;50.932;5.342;2023-05-10T00:14:34;16.27;;;9.37;;
17987;SDS011;9119;50.932;5.342;2023-05-10T00:17:00;18.47;;;10.37;;
17987;SDS011;9119;50.932;5.342;2023-05-10T00:19:26;17.20;;;10.03;;
17987;SDS011;9119;50.932;5.342;2023-05-10T00:21:52;21.07;;;10.87;;
17987;SDS011;9119;50.932;5.342;2023-05-10T00:24:18;17.27;;;9.97;;
17987;SDS011;9119;50.932;5.342;2023-05-10T00:26:43;17.27;;;10.17;;
17987;SDS011;9119;50.932;5.342;2023-05-10T00:29:09;15.80;;;10.10;;
17987;SDS011;9119;50.932;5.342;2023-05-10T00:31:35;23.37;;;11.50;;
17987;SDS011;9119;50.932;5.342;2023-05-10T00:34:01;17.43;;;10.10;;
17987;SDS011;9119;50.932;5.342;2023-05-10T00:36:26;19.90;;;10.07;;
17987;SDS011;9119;50.932;5.342;2023-05-10T00:38:53;19.33;;;10.40;;
17987;SDS011;9119;50.932;5.342;2023-05-10T00:41:19;19.73;;;10.27;;
17987;SDS011;9119;50.932;5.342;2023-05-10T00:43:46;18.87;;;10.83;;
17987;SDS011;9119;50.932;5.342;2023-05-10T00:46:11;19.37;;;10.27;;
17987;SDS011;9119;50.932;5.342;2023-05-10T00:48:39;17.33;;;10.27;;
17987;SDS011;9119;50.932;5.342;2023-05-10T00:51:05;19.67;;;9.87;;
17987;SDS011;9119;50.932;5.342;2023-05-10T00:53:31;16.57;;;9.47;;
17987;SDS011;9119;50.932;5.342;2023-05-10T00:55:58;20.87;;;10.40;;
17987;SDS011;9119;50.932;5.342;2023-05-10T00:58:24;18.87;;;9.27;;
17987;SDS011;9119;50.932;5.342;2023-05-10T01:00:53;20.30;;;10.27;;
17987;SDS011;9119;50.932;5.342;2023-05-10T01:03:21;18.37;;;9.97;;
17987;SDS011;9119;50.932;5.342;2023-05-10T01:05:46;19.47;;;9.93;;
17987;SDS011;9119;50.932;5.342;2023-05-10T01:08:12;18.50;;;10.53;;
17987;SDS011;9119;50.932;5.342;2023-05-10T01:10:38;15.03;;;9.27;;
17987;SDS011;9119;50.932;5.342;2023-05-10T01:13:04;19.53;;;11.00;;
17987;SDS011;9119;50.932;5.342;2023-05-10T01:15:30;17.53;;;10.70;;
17987;SDS011;9119;50.932;5.342;2023-05-10T01:17:56;23.37;;;11.10;;
17987;SDS011;9119;50.932;5.342;2023-05-10T01:20:22;14.30;;;9.57;;
17987;SDS011;9119;50.932;5.342;2023-05-10T01:31:27;24.70;;;10.67;;
17987;SDS011;9119;50.932;5.342;2023-05-10T01:34:01;20.70;;;10.87;;
17987;SDS011;9119;50.932;5.342;2023-05-10T01:36:32;25.97;;;10.60;;
17987;SDS011;9119;50.932;5.342;2023-05-10T01:39:11;23.10;;;11.23;;
17987;SDS011;9119;50.932;5.342;2023-05-10T01:42:03;22.20;;;9.73;;
17987;SDS011;9119;50.932;5.342;2023-05-10T01:44:43;22.73;;;10.50;;
17987;SDS011;9119;50.932;5.342;2023-05-10T01:47:25;24.33;;;10.80;;
17987;SDS011;9119;50.932;5.342;2023-05-10T01:50:01;23.00;;;11.33;;
17987;SDS011;9119;50.932;5.342;2023-05-10T01:52:33;22.50;;;10.57;;
17987;SDS011;9119;50.932;5.342;2023-05-10T01:55:08;18.50;;;10.17;;
17987;SDS011;9119;50.932;5.342;2023-05-10T01:57:39;28.10;;;11.20;;
17987;SDS011;9119;50.932;5.342;2023-05-10T02:00:07;23.47;;;10.73;;
17987;SDS011;9119;50.932;5.342;2023-05-10T02:02:39;21.80;;;10.23;;
17987;SDS011;9119;50.932;5.342;2023-05-10T02:05:07;27.80;;;11.27;;
17987;SDS011;9119;50.932;5.342;2023-05-10T02:07:34;22.30;;;10.73;;
17987;SDS011;9119;50.932;5.342;2023-05-10T02:10:04;33.23;;;12.00;;
17987;SDS011;9119;50.932;5.342;2023-05-10T02:12:36;29.17;;;11.67;;
17987;SDS011;9119;50.932;5.342;2023-05-10T02:15:04;28.43;;;12.13;;
17987;SDS011;9119;50.932;5.342;2023-05-10T02:17:32;26.83;;;11.17;;
17987;SDS011;9119;50.932;5.342;2023-05-10T02:19:59;21.87;;;10.93;;
17987;SDS011;9119;50.932;5.342;2023-05-10T02:22:27;25.93;;;11.43;;
17987;SDS011;9119;50.932;5.342;2023-05-10T02:24:56;27.03;;;11.37;;
17987;SDS011;9119;50.932;5.342;2023-05-10T02:27:23;20.60;;;10.40;;
17987;SDS011;9119;50.932;5.342;2023-05-10T02:29:50;20.73;;;10.93;;
17987;SDS011;9119;50.932;5.342;2023-05-10T02:32:17;25.03;;;11.67;;
17987;SDS011;9119;50.932;5.342;2023-05-10T02:34:44;31.03;;;10.57;;
17987;SDS011;9119;50.932;5.342;2023-05-10T02:37:11;22.83;;;11.03;;
17987;SDS011;9119;50.932;5.342;2023-05-10T02:39:39;24.30;;;11.13;;
17987;SDS011;9119;50.932;5.342;2023-05-10T02:42:10;22.53;;;11.33;;
17987;SDS011;9119;50.932;5.342;2023-05-10T02:44:45;23.20;;;10.60;;
17987;SDS011;9119;50.932;5.342;2023-05-10T02:47:13;29.03;;;11.33;;
17987;SDS011;9119;50.932;5.342;2023-05-10T02:49:39;33.00;;;11.97;;
17987;SDS011;9119;50.932;5.342;2023-05-10T02:52:05;26.50;;;12.30;;
17987;SDS011;9119;50.932;5.342;2023-05-10T02:54:35;23.87;;;11.27;;
17987;SDS011;9119;50.932;5.342;2023-05-10T02:57:06;23.97;;;10.87;;
17987;SDS011;9119;50.932;5.342;2023-05-10T02:59:34;25.20;;;11.63;;
17987;SDS011;9119;50.932;5.342;2023-05-10T03:02:00;25.07;;;11.60;;
17987;SDS011;9119;50.932;5.342;2023-05-10T03:04:27;29.60;;;12.40;;
17987;SDS011;9119;50.932;5.342;2023-05-10T03:06:52;29.83;;;11.03;;
17987;SDS011;9119;50.932;5.342;2023-05-10T03:09:18;25.27;;;11.47;;
17987;SDS011;9119;50.932;5.342;2023-05-10T03:14:40;21.40;;;11.00;;
17987;SDS011;9119;50.932;5.342;2023-05-10T03:19:56;21.87;;;10.63;;
17987;SDS011;9119;50.932;5.342;2023-05-10T03:22:24;26.03;;;11.60;;
17987;SDS011;9119;50.932;5.342;2023-05-10T03:24:53;30.67;;;12.67;;
17987;SDS011;9119;50.932;5.342;2023-05-10T03:27:22;27.17;;;12.37;;
17987;SDS011;9119;50.932;5.342;2023-05-10T03:29:50;28.73;;;11.83;;
17987;SDS011;9119;50.932;5.342;2023-05-10T03:32:17;28.30;;;12.80;;
17987;SDS011;9119;50.932;5.342;2023-05-10T03:34:43;29.60;;;13.37;;
17987;SDS011;9119;50.932;5.342;2023-05-10T03:37:09;24.40;;;12.50;;
17987;SDS011;9119;50.932;5.342;2023-05-10T03:39:34;30.70;;;12.67;;
17987;SDS011;9119;50.932;5.342;2023-05-10T03:42:01;29.53;;;13.67;;
17987;SDS011;9119;50.932;5.342;2023-05-10T03:44:27;28.70;;;13.57;;
17987;SDS011;9119;50.932;5.342;2023-05-10T03:46:53;31.00;;;13.53;;
17987;SDS011;9119;50.932;5.342;2023-05-10T03:49:18;38.73;;;14.60;;
17987;SDS011;9119;50.932;5.342;2023-05-10T03:51:44;34.27;;;14.33;;
17987;SDS011;9119;50.932;5.342;2023-05-10T03:54:10;26.47;;;13.17;;
17987;SDS011;9119;50.932;5.342;2023-05-10T03:56:35;36.37;;;14.37;;
17987;SDS011;9119;50.932;5.342;2023-05-10T03:59:01;30.87;;;13.60;;
17987;SDS011;9119;50.932;5.342;2023-05-10T04:01:32;32.20;;;14.40;;
17987;SDS011;9119;50.932;5.342;2023-05-10T04:03:58;31.10;;;14.60;;
17987;SDS011;9119;50.932;5.342;2023-05-10T04:06:24;33.70;;;15.50;;
17987;SDS011;9119;50.932;5.342;2023-05-10T04:08:49;33.00;;;14.23;;
17987;SDS011;9119;50.932;5.342;2023-05-10T04:11:15;38.37;;;15.87;;
17987;SDS011;9119;50.932;5.342;2023-05-10T04:13:41;39.73;;;17.30;;
17987;SDS011;9119;50.932;5.342;2023-05-10T04:16:08;33.40;;;15.20;;
17987;SDS011;9119;50.932;5.342;2023-05-10T04:18:34;34.17;;;16.23;;
17987;SDS011;9119;50.932;5.342;2023-05-10T04:21:00;40.13;;;16.67;;
17987;SDS011;9119;50.932;5.342;2023-05-10T04:23:26;37.50;;;16.07;;
17987;SDS011;9119;50.932;5.342;2023-05-10T04:25:52;34.23;;;16.23;;
17987;SDS011;9119;50.932;5.342;2023-05-10T04:28:24;41.67;;;16.77;;
17987;SDS011;9119;50.932;5.342;2023-05-10T04:30:49;35.73;;;17.23;;
17987;SDS011;9119;50.932;5.342;2023-05-10T04:33:15;35.93;;;16.43;;
17987;SDS011;9119;50.932;5.342;2023-05-10T04:35:40;41.53;;;17.77;;
17987;SDS011;9119;50.932;5.342;2023-05-10T04:38:06;43.43;;;17.50;;
17987;SDS011;9119;50.932;5.342;2023-05-10T04:40:32;38.90;;;16.67;;
17987;SDS011;9119;50.932;5.342;2023-05-10T04:42:58;37.37;;;16.37;;
17987;SDS011;9119;50.932;5.342;2023-05-10T04:45:23;41.10;;;17.70;;
17987;SDS011;9119;50.932;5.342;2023-05-10T04:47:49;45.77;;;18.17;;
17987;SDS011;9119;50.932;5.342;2023-05-10T04:50:14;42.07;;;17.43;;
17987;SDS011;9119;50.932;5.342;2023-05-10T04:52:40;38.67;;;18.43;;
17987;SDS011;9119;50.932;5.342;2023-05-10T04:55:06;43.20;;;18.30;;
17987;SDS011;9119;50.932;5.342;2023-05-10T04:57:34;52.73;;;19.53;;
17987;SDS011;9119;50.932;5.342;2023-05-10T05:00:00;38.23;;;18.30;;
17987;SDS011;9119;50.932;5.342;2023-05-10T05:02:25;45.17;;;19.57;;
17987;SDS011;9119;50.932;5.342;2023-05-10T05:04:51;48.37;;;19.17;;
17987;SDS011;9119;50.932;5.342;2023-05-10T05:07:17;40.10;;;18.53;;
17987;SDS011;9119;50.932;5.342;2023-05-10T05:09:42;38.63;;;17.73;;
17987;SDS011;9119;50.932;5.342;2023-05-10T05:12:08;49.37;;;19.57;;
17987;SDS011;9119;50.932;5.342;2023-05-10T05:14:38;51.17;;;20.53;;
17987;SDS011;9119;50.932;5.342;2023-05-10T05:17:05;49.57;;;20.37;;
17987;SDS011;9119;50.932;5.342;2023-05-10T05:19:31;44.07;;;19.83;;
17987;SDS011;9119;50.932;5.342;2023-05-10T05:21:56;45.10;;;19.23;;
17987;SDS011;9119;50.932;5.342;2023-05-10T05:24:22;50.37;;;21.23;;
17987;SDS011;9119;50.932;5.342;2023-05-10T05:26:48;46.13;;;19.50;;
17987;SDS011;9119;50.932;5.342;2023-05-10T05:29:13;47.23;;;20.97;;
17987;SDS011;9119;50.932;5.342;2023-05-10T05:31:39;44.17;;;19.20;;
17987;SDS011;9119;50.932;5.342;2023-05-10T05:34:05;48.10;;;23.20;;
17987;SDS011;9119;50.932;5.342;2023-05-10T05:36:30;45.43;;;20.20;;
17987;SDS011;9119;50.932;5.342;2023-05-10T05:38:57;51.43;;;22.53;;
17987;SDS011;9119;50.932;5.342;2023-05-10T05:41:22;59.50;;;25.07;;
17987;SDS011;9119;50.932;5.342;2023-05-10T05:43:49;64.00;;;24.73;;
17987;SDS011;9119;50.932;5.342;2023-05-10T05:46:15;71.10;;;25.93;;
17987;SDS011;9119;50.932;5.342;2023-05-10T05:48:41;63.50;;;24.53;;
17987;SDS011;9119;50.932;5.342;2023-05-10T05:51:06;60.67;;;25.03;;
17987;SDS011;9119;50.932;5.342;2023-05-10T05:53:32;62.23;;;25.10;;
17987;SDS011;9119;50.932;5.342;2023-05-10T05:55:58;64.80;;;25.13;;
17987;SDS011;9119;50.932;5.342;2023-05-10T05:58:24;65.17;;;24.80;;
17987;SDS011;9119;50.932;5.342;2023-05-10T06:00:51;61.33;;;24.63;;
17987;SDS011;9119;50.932;5.342;2023-05-10T06:03:17;70.57;;;24.20;;
17987;SDS011;9119;50.932;5.342;2023-05-10T06:05:43;65.30;;;25.00;;
17987;SDS011;9119;50.932;5.342;2023-05-10T06:08:09;69.87;;;24.87;;
17987;SDS011;9119;50.932;5.342;2023-05-10T06:10:35;74.40;;;24.83;;
17987;SDS011;9119;50.932;5.342;2023-05-10T06:13:01;61.07;;;23.23;;
17987;SDS011;9119;50.932;5.342;2023-05-10T06:15:27;59.30;;;22.63;;
17987;SDS011;9119;50.932;5.342;2023-05-10T06:17:52;56.60;;;22.47;;
17987;SDS011;9119;50.932;5.342;2023-05-10T06:20:18;59.33;;;23.13;;
17987;SDS011;9119;50.932;5.342;2023-05-10T06:22:44;63.33;;;24.30;;
17987;SDS011;9119;50.932;5.342;2023-05-10T06:25:10;58.47;;;24.00;;
17987;SDS011;9119;50.932;5.342;2023-05-10T06:27:36;61.57;;;23.67;;
17987;SDS011;9119;50.932;5.342;2023-05-10T06:30:02;55.27;;;22.80;;
17987;SDS011;9119;50.932;5.342;2023-05-10T06:32:28;57.17;;;23.50;;
17987;SDS011;9119;50.932;5.342;2023-05-10T06:34:54;55.73;;;23.47;;
17987;SDS011;9119;50.932;5.342;2023-05-10T06:37:20;58.73;;;23.17;;
17987;SDS011;9119;50.932;5.342;2023-05-10T06:39:45;59.30;;;24.80;;
17987;SDS011;9119;50.932;5.342;2023-05-10T06:42:11;65.83;;;24.90;;
17987;SDS011;9119;50.932;5.342;2023-05-10T06:44:37;58.77;;;24.00;;
17987;SDS011;9119;50.932;5.342;2023-05-10T06:47:02;62.37;;;23.83;;
17987;SDS011;9119;50.932;5.342;2023-05-10T06:49:28;59.47;;;23.47;;
17987;SDS011;9119;50.932;5.342;2023-05-10T06:51:55;69.30;;;26.17;;
17987;SDS011;9119;50.932;5.342;2023-05-10T06:54:21;65.03;;;25.17;;
17987;SDS011;9119;50.932;5.342;2023-05-10T06:56:46;69.93;;;24.97;;
17987;SDS011;9119;50.932;5.342;2023-05-10T06:59:12;67.03;;;23.73;;
17987;SDS011;9119;50.932;5.342;2023-05-10T07:01:38;66.13;;;23.33;;
17987;SDS011;9119;50.932;5.342;2023-05-10T07:04:04;64.00;;;23.73;;
17987;SDS011;9119;50.932;5.342;2023-05-10T07:06:30;58.40;;;23.27;;
17987;SDS011;9119;50.932;5.342;2023-05-10T07:08:56;62.20;;;24.33;;
17987;SDS011;9119;50.932;5.342;2023-05-10T07:11:22;67.77;;;24.20;;
17987;SDS011;9119;50.932;5.342;2023-05-10T07:13:47;64.87;;;24.50;;
17987;SDS011;9119;50.932;5.342;2023-05-10T07:16:13;62.57;;;25.00;;
17987;SDS011;9119;50.932;5.342;2023-05-10T07:21:30;61.23;;;23.73;;
17987;SDS011;9119;50.932;5.342;2023-05-10T07:23:56;62.03;;;23.93;;
17987;SDS011;9119;50.932;5.342;2023-05-10T07:26:21;56.37;;;23.10;;
17987;SDS011;9119;50.932;5.342;2023-05-10T07:28:47;62.77;;;25.00;;
17987;SDS011;9119;50.932;5.342;2023-05-10T07:31:13;58.33;;;24.03;;
17987;SDS011;9119;50.932;5.342;2023-05-10T07:33:38;55.73;;;23.90;;
17987;SDS011;9119;50.932;5.342;2023-05-10T07:36:04;58.03;;;21.90;;
17987;SDS011;9119;50.932;5.342;2023-05-10T07:38:30;54.20;;;21.73;;
17987;SDS011;9119;50.932;5.342;2023-05-10T07:40:56;54.90;;;22.17;;
17987;SDS011;9119;50.932;5.342;2023-05-10T07:43:21;49.70;;;21.60;;
17987;SDS011;9119;50.932;5.342;2023-05-10T07:45:47;54.67;;;21.80;;
17987;SDS011;9119;50.932;5.342;2023-05-10T07:48:13;55.17;;;21.30;;
17987;SDS011;9119;50.932;5.342;2023-05-10T07:50:39;47.30;;;19.87;;
17987;SDS011;9119;50.932;5.342;2023-05-10T07:53:04;49.50;;;21.17;;
17987;SDS011;9119;50.932;5.342;2023-05-10T07:55:30;45.57;;;20.17;;
17987;SDS011;9119;50.932;5.342;2023-05-10T07:57:56;51.03;;;22.37;;
17987;SDS011;9119;50.932;5.342;2023-05-10T08:00:21;50.77;;;19.83;;
17987;SDS011;9119;50.932;5.342;2023-05-10T08:02:47;41.23;;;18.03;;
17987;SDS011;9119;50.932;5.342;2023-05-10T08:05:13;45.00;;;18.70;;
17987;SDS011;9119;50.932;5.342;2023-05-10T08:07:39;44.13;;;18.60;;
17987;SDS011;9119;50.932;5.342;2023-05-10T08:10:05;38.20;;;18.20;;
17987;SDS011;9119;50.932;5.342;2023-05-10T08:12:31;20.90;;;10.63;;
17987;SDS011;9119;50.932;5.342;2023-05-10T08:14:57;18.77;;;9.03;;
17987;SDS011;9119;50.932;5.342;2023-05-10T08:17:23;12.47;;;6.23;;
17987;SDS011;9119;50.932;5.342;2023-05-10T08:19:48;9.83;;;4.87;;
17987;SDS011;9119;50.932;5.342;2023-05-10T08:22:14;8.00;;;4.33;;
17987;SDS011;9119;50.932;5.342;2023-05-10T08:24:40;6.97;;;3.30;;
17987;SDS011;9119;50.932;5.342;2023-05-10T08:27:07;6.60;;;3.60;;
17987;SDS011;9119;50.932;5.342;2023-05-10T08:29:33;6.50;;;3.03;;
17987;SDS011;9119;50.932;5.342;2023-05-10T08:31:59;7.77;;;3.87;;
17987;SDS011;9119;50.932;5.342;2023-05-10T08:34:26;7.90;;;3.40;;
17987;SDS011;9119;50.932;5.342;2023-05-10T08:36:52;8.70;;;3.37;;
17987;SDS011;9119;50.932;5.342;2023-05-10T08:39:17;5.63;;;3.00;;
17987;SDS011;9119;50.932;5.342;2023-05-10T08:41:43;4.40;;;2.70;;
17987;SDS011;9119;50.932;5.342;2023-05-10T08:44:11;5.80;;;3.30;;
17987;SDS011;9119;50.932;5.342;2023-05-10T08:46:37;5.73;;;3.23;;
17987;SDS011;9119;50.932;5.342;2023-05-10T08:49:08;6.70;;;3.83;;
17987;SDS011;9119;50.932;5.342;2023-05-10T08:51:39;8.67;;;3.93;;
17987;SDS011;9119;50.932;5.342;2023-05-10T08:54:09;7.87;;;4.43;;
17987;SDS011;9119;50.932;5.342;2023-05-10T08:56:34;10.13;;;4.57;;
17987;SDS011;9119;50.932;5.342;2023-05-10T08:59:01;8.00;;;3.40;;
17987;SDS011;9119;50.932;5.342;2023-05-10T09:01:27;10.13;;;3.90;;
17987;SDS011;9119;50.932;5.342;2023-05-10T09:03:56;30.37;;;5.30;;
17987;SDS011;9119;50.932;5.342;2023-05-10T09:06:23;15.87;;;4.33;;
17987;SDS011;9119;50.932;5.342;2023-05-10T09:08:49;5.80;;;3.90;;
17987;SDS011;9119;50.932;5.342;2023-05-10T09:11:15;14.23;;;4.43;;
17987;SDS011;9119;50.932;5.342;2023-05-10T09:13:42;7.60;;;3.63;;
17987;SDS011;9119;50.932;5.342;2023-05-10T09:16:08;7.73;;;4.23;;
17987;SDS011;9119;50.932;5.342;2023-05-10T09:18:34;6.77;;;4.20;;
17987;SDS011;9119;50.932;5.342;2023-05-10T09:21:00;8.13;;;3.87;;
17987;SDS011;9119;50.932;5.342;2023-05-10T09:23:26;10.03;;;4.10;;
17987;SDS011;9119;50.932;5.342;2023-05-10T09:26:06;9.97;;;3.80;;
17987;SDS011;9119;50.932;5.342;2023-05-10T09:28:54;12.33;;;5.00;;
17987;SDS011;9119;50.932;5.342;2023-05-10T09:31:23;9.97;;;4.60;;
17987;SDS011;9119;50.932;5.342;2023-05-10T09:33:50;11.33;;;4.57;;
17987;SDS011;9119;50.932;5.342;2023-05-10T09:36:17;7.47;;;4.87;;
17987;SDS011;9119;50.932;5.342;2023-05-10T09:38:50;11.60;;;4.97;;
17987;SDS011;9119;50.932;5.342;2023-05-10T09:41:23;10.63;;;4.43;;
17987;SDS011;9119;50.932;5.342;2023-05-10T09:43:50;12.87;;;5.03;;
17987;SDS011;9119;50.932;5.342;2023-05-10T09:46:20;11.27;;;5.00;;
17987;SDS011;9119;50.932;5.342;2023-05-10T09:48:46;8.40;;;5.13;;
17987;SDS011;9119;50.932;5.342;2023-05-10T09:51:22;11.57;;;5.93;;
17987;SDS011;9119;50.932;5.342;2023-05-10T09:53:57;17.03;;;5.80;;
17987;SDS011;9119;50.932;5.342;2023-05-10T09:56:38;10.20;;;6.03;;
17987;SDS011;9119;50.932;5.342;2023-05-10T09:59:06;15.13;;;6.10;;
17987;SDS011;9119;50.932;5.342;2023-05-10T10:01:34;14.73;;;7.10;;
17987;SDS011;9119;50.932;5.342;2023-05-10T10:04:08;13.23;;;6.77;;
17987;SDS011;9119;50.932;5.342;2023-05-10T10:06:38;12.50;;;7.00;;
17987;SDS011;9119;50.932;5.342;2023-05-10T10:09:05;13.67;;;6.90;;
17987;SDS011;9119;50.932;5.342;2023-05-10T10:11:32;13.47;;;7.93;;
17987;SDS011;9119;50.932;5.342;2023-05-10T10:13:59;14.93;;;7.73;;
17987;SDS011;9119;50.932;5.342;2023-05-10T10:16:26;14.67;;;8.37;;
17987;SDS011;9119;50.932;5.342;2023-05-10T10:18:54;20.33;;;9.80;;
17987;SDS011;9119;50.932;5.342;2023-05-10T10:21:20;15.33;;;8.97;;
17987;SDS011;9119;50.932;5.342;2023-05-10T10:23:47;25.07;;;10.80;;
17987;SDS011;9119;50.932;5.342;2023-05-10T10:26:13;19.07;;;9.87;;
17987;SDS011;9119;50.932;5.342;2023-05-10T10:28:41;24.40;;;10.43;;
17987;SDS011;9119;50.932;5.342;2023-05-10T10:34:21;21.73;;;10.10;;
17987;SDS011;9119;50.932;5.342;2023-05-10T10:36:54;36.83;;;19.50;;
17987;SDS011;9119;50.932;5.342;2023-05-10T10:39:21;19.73;;;9.97;;
17987;SDS011;9119;50.932;5.342;2023-05-10T10:41:53;20.27;;;9.60;;
17987;SDS011;9119;50.932;5.342;2023-05-10T10:47:05;23.80;;;9.77;;
17987;SDS011;9119;50.932;5.342;2023-05-10T10:49:47;23.00;;;9.97;;
17987;SDS011;9119;50.932;5.342;2023-05-10T10:57:35;18.00;;;8.40;;
17987;SDS011;9119;50.932;5.342;2023-05-10T11:00:27;13.63;;;7.97;;
17987;SDS011;9119;50.932;5.342;2023-05-10T11:05:36;15.53;;;7.40;;
17987;SDS011;9119;50.932;5.342;2023-05-10T11:08:30;12.97;;;7.33;;
17987;SDS011;9119;50.932;5.342;2023-05-10T11:16:12;12.57;;;6.50;;
17987;SDS011;9119;50.932;5.342;2023-05-10T11:18:52;14.43;;;7.60;;
17987;SDS011;9119;50.932;5.342;2023-05-10T11:21:29;15.73;;;6.97;;
17987;SDS011;9119;50.932;5.342;2023-05-10T11:23:56;11.90;;;7.07;;
17987;SDS011;9119;50.932;5.342;2023-05-10T11:26:34;12.03;;;6.53;;
17987;SDS011;9119;50.932;5.342;2023-05-10T11:29:01;11.07;;;6.23;;
17987;SDS011;9119;50.932;5.342;2023-05-10T11:31:28;12.50;;;6.57;;
17987;SDS011;9119;50.932;5.342;2023-05-10T11:33:54;12.87;;;6.70;;
17987;SDS011;9119;50.932;5.342;2023-05-10T11:36:42;13.07;;;7.03;;
17987;SDS011;9119;50.932;5.342;2023-05-10T11:39:07;15.17;;;6.97;;
17987;SDS011;9119;50.932;5.342;2023-05-10T11:41:32;11.67;;;5.80;;
17987;SDS011;9119;50.932;5.342;2023-05-10T11:43:58;11.60;;;5.97;;
17987;SDS011;9119;50.932;5.342;2023-05-10T11:46:24;13.23;;;5.73;;
17987;SDS011;9119;50.932;5.342;2023-05-10T11:48:59;15.93;;;6.10;;
17987;SDS011;9119;50.932;5.342;2023-05-10T11:51:26;22.80;;;6.40;;
17987;SDS011;9119;50.932;5.342;2023-05-10T11:53:53;9.80;;;5.73;;
17987;SDS011;9119;50.932;5.342;2023-05-10T11:56:20;11.17;;;5.33;;
17987;SDS011;9119;50.932;5.342;2023-05-10T11:58:51;11.33;;;5.47;;
17987;SDS011;9119;50.932;5.342;2023-05-10T12:01:21;8.97;;;5.50;;
17987;SDS011;9119;50.932;5.342;2023-05-10T12:03:48;9.87;;;5.03;;
17987;SDS011;9119;50.932;5.342;2023-05-10T12:06:15;9.17;;;5.63;;
17987;SDS011;9119;50.932;5.342;2023-05-10T12:08:44;7.23;;;4.40;;
17987;SDS011;9119;50.932;5.342;2023-05-10T12:11:12;8.70;;;5.07;;
17987;SDS011;9119;50.932;5.342;2023-05-10T12:13:42;9.80;;;5.27;;
17987;SDS011;9119;50.932;5.342;2023-05-10T12:16:22;8.17;;;4.43;;
17987;SDS011;9119;50.932;5.342;2023-05-10T12:18:49;9.57;;;4.60;;
17987;SDS011;9119;50.932;5.342;2023-05-10T12:21:16;6.63;;;4.50;;
17987;SDS011;9119;50.932;5.342;2023-05-10T12:23:42;6.97;;;4.17;;
17987;SDS011;9119;50.932;5.342;2023-05-10T12:26:11;9.10;;;4.23;;
17987;SDS011;9119;50.932;5.342;2023-05-10T12:28:37;6.03;;;3.77;;
17987;SDS011;9119;50.932;5.342;2023-05-10T12:31:05;7.07;;;3.57;;
17987;SDS011;9119;50.932;5.342;2023-05-10T12:33:41;7.87;;;3.97;;
17987;SDS011;9119;50.932;5.342;2023-05-10T12:36:09;8.53;;;3.90;;
17987;SDS011;9119;50.932;5.342;2023-05-10T12:38:36;7.60;;;3.70;;
17987;SDS011;9119;50.932;5.342;2023-05-10T12:41:07;8.37;;;4.13;;
17987;SDS011;9119;50.932;5.342;2023-05-10T12:43:38;8.57;;;4.10;;
17987;SDS011;9119;50.932;5.342;2023-05-10T12:46:14;5.97;;;3.73;;
17987;SDS011;9119;50.932;5.342;2023-05-10T12:48:41;7.83;;;3.57;;
17987;SDS011;9119;50.932;5.342;2023-05-10T12:51:08;6.03;;;3.73;;
17987;SDS011;9119;50.932;5.342;2023-05-10T12:53:40;7.67;;;4.00;;
17987;SDS011;9119;50.932;5.342;2023-05-10T12:56:06;6.93;;;3.70;;
17987;SDS011;9119;50.932;5.342;2023-05-10T12:58:32;4.53;;;3.10;;
17987;SDS011;9119;50.932;5.342;2023-05-10T13:00:58;5.40;;;3.30;;
17987;SDS011;9119;50.932;5.342;2023-05-10T13:03:25;7.10;;;3.60;;
17987;SDS011;9119;50.932;5.342;2023-05-10T13:05:50;5.73;;;2.97;;
17987;SDS011;9119;50.932;5.342;2023-05-10T13:08:16;8.57;;;2.90;;
17987;SDS011;9119;50.932;5.342;2023-05-10T13:10:42;5.00;;;2.67;;
17987;SDS011;9119;50.932;5.342;2023-05-10T13:13:08;4.57;;;2.97;;
17987;SDS011;9119;50.932;5.342;2023-05-10T13:15:33;6.00;;;3.40;;
17987;SDS011;9119;50.932;5.342;2023-05-10T13:17:59;4.50;;;3.00;;
17987;SDS011;9119;50.932;5.342;2023-05-10T13:20:25;7.07;;;3.03;;
17987;SDS011;9119;50.932;5.342;2023-05-10T13:22:52;4.57;;;3.10;;
17987;SDS011;9119;50.932;5.342;2023-05-10T13:25:17;4.97;;;2.50;;
17987;SDS011;9119;50.932;5.342;2023-05-10T13:27:43;5.20;;;3.10;;
17987;SDS011;9119;50.932;5.342;2023-05-10T13:30:09;3.83;;;2.60;;
17987;SDS011;9119;50.932;5.342;2023-05-10T13:32:36;4.40;;;2.87;;
17987;SDS011;9119;50.932;5.342;2023-05-10T13:35:02;5.57;;;3.40;;
17987;SDS011;9119;50.932;5.342;2023-05-10T13:37:29;7.57;;;3.17;;
17987;SDS011;9119;50.932;5.342;2023-05-10T13:39:55;4.73;;;3.17;;
17987;SDS011;9119;50.932;5.342;2023-05-10T13:42:22;3.97;;;2.93;;
17987;SDS011;9119;50.932;5.342;2023-05-10T13:44:48;4.07;;;2.50;;
17987;SDS011;9119;50.932;5.342;2023-05-10T13:47:14;4.47;;;2.30;;
17987;SDS011;9119;50.932;5.342;2023-05-10T13:49:40;5.00;;;2.60;;
17987;SDS011;9119;50.932;5.342;2023-05-10T13:52:06;4.83;;;2.47;;
17987;SDS011;9119;50.932;5.342;2023-05-10T13:54:38;3.20;;;2.33;;
17987;SDS011;9119;50.932;5.342;2023-05-10T13:57:06;4.27;;;2.30;;
17987;SDS011;9119;50.932;5.342;2023-05-10T13:59:32;3.27;;;2.30;;
17987;SDS011;9119;50.932;5.342;2023-05-10T14:01:58;4.03;;;2.27;;
17987;SDS011;9119;50.932;5.342;2023-05-10T14:04:24;4.80;;;2.70;;
17987;SDS011;9119;50.932;5.342;2023-05-10T14:06:50;4.80;;;3.00;;
17987;SDS011;9119;50.932;5.342;2023-05-10T14:09:17;8.77;;;2.40;;
17987;SDS011;9119;50.932;5.342;2023-05-10T14:11:43;5.33;;;2.17;;
17987;SDS011;9119;50.932;5.342;2023-05-10T14:14:10;3.43;;;2.20;;
17987;SDS011;9119;50.932;5.342;2023-05-10T14:16:37;9.93;;;5.43;;
17987;SDS011;9119;50.932;5.342;2023-05-10T14:19:03;5.73;;;3.03;;
17987;SDS011;9119;50.932;5.342;2023-05-10T14:21:29;8.57;;;3.03;;
17987;SDS011;9119;50.932;5.342;2023-05-10T14:23:55;4.30;;;3.03;;
17987;SDS011;9119;50.932;5.342;2023-05-10T14:26:21;5.77;;;3.30;;
17987;SDS011;9119;50.932;5.342;2023-05-10T14:28:47;5.10;;;3.30;;
17987;SDS011;9119;50.932;5.342;2023-05-10T14:31:13;3.83;;;2.97;;
17987;SDS011;9119;50.932;5.342;2023-05-10T14:33:39;4.83;;;2.60;;
17987;SDS011;9119;50.932;5.342;2023-05-10T14:36:05;4.00;;;2.50;;
17987;SDS011;9119;50.932;5.342;2023-05-10T14:38:31;5.53;;;2.77;;
17987;SDS011;9119;50.932;5.342;2023-05-10T14:40:57;4.13;;;2.57;;
17987;SDS011;9119;50.932;5.342;2023-05-10T14:43:23;6.27;;;2.90;;
17987;SDS011;9119;50.932;5.342;2023-05-10T14:45:49;4.73;;;2.80;;
17987;SDS011;9119;50.932;5.342;2023-05-10T14:48:15;3.40;;;2.50;;
17987;SDS011;9119;50.932;5.342;2023-05-10T14:50:42;5.07;;;2.90;;
17987;SDS011;9119;50.932;5.342;2023-05-10T14:53:08;5.00;;;2.87;;
17987;SDS011;9119;50.932;5.342;2023-05-10T14:55:35;4.70;;;2.63;;
17987;SDS011;9119;50.932;5.342;2023-05-10T14:58:04;5.47;;;2.57;;
17987;SDS011;9119;50.932;5.342;2023-05-10T15:00:30;4.67;;;3.10;;
17987;SDS011;9119;50.932;5.342;2023-05-10T15:02:56;5.60;;;3.60;;
17987;SDS011;9119;50.932;5.342;2023-05-10T15:05:22;4.33;;;2.77;;
17987;SDS011;9119;50.932;5.342;2023-05-10T15:07:48;2.97;;;2.30;;
17987;SDS011;9119;50.932;5.342;2023-05-10T15:10:14;6.73;;;3.57;;
17987;SDS011;9119;50.932;5.342;2023-05-10T15:12:40;7.73;;;3.50;;
17987;SDS011;9119;50.932;5.342;2023-05-10T15:15:06;5.67;;;2.33;;
17987;SDS011;9119;50.932;5.342;2023-05-10T15:17:33;3.40;;;2.07;;
17987;SDS011;9119;50.932;5.342;2023-05-10T15:19:59;4.63;;;2.10;;
17987;SDS011;9119;50.932;5.342;2023-05-10T15:22:25;3.30;;;2.43;;